createdAt,value
2023-04-27T00:00:39.266Z,13.10
2023-04-27T00:03:25.684Z,13.40
2023-04-27T00:06:12.097Z,13.40
2023-04-27T00:08:57.955Z,13.00
2023-04-27T00:11:43.758Z,13.10
2023-04-27T00:14:29.674Z,13.40
2023-04-27T00:17:16.015Z,13.60
2023-04-27T00:20:01.971Z,13.70
2023-04-27T00:22:47.955Z,13.90
2023-04-27T00:25:34.435Z,13.90
2023-04-27T00:28:20.459Z,13.80
2023-04-27T00:31:06.666Z,13.80
2023-04-27T00:33:52.863Z,13.90
2023-04-27T00:36:38.533Z,13.90
2023-04-27T00:39:23.922Z,14.00
2023-04-27T00:42:13.300Z,13.90
2023-04-27T00:44:59.219Z,13.80
2023-04-27T00:47:45.690Z,13.80
2023-04-27T00:50:31.782Z,13.90
2023-04-27T00:53:18.067Z,13.90
2023-04-27T00:56:06.546Z,13.80
2023-04-27T00:58:52.163Z,13.70
2023-04-27T01:01:37.790Z,13.70
2023-04-27T01:04:24.144Z,13.80
2023-04-27T01:07:10.640Z,13.80
2023-04-27T01:09:56.953Z,13.70
2023-04-27T01:12:42.873Z,13.60
2023-04-27T01:15:29.502Z,13.30
2023-04-27T01:18:15.680Z,12.90
2023-04-27T01:21:01.678Z,12.60
2023-04-27T01:23:47.812Z,12.80
2023-04-27T01:26:33.780Z,12.80
2023-04-27T01:29:21.652Z,12.90
2023-04-27T01:32:07.525Z,13.10
2023-04-27T01:34:53.575Z,12.40
2023-04-27T01:37:40.165Z,12.30
2023-04-27T01:40:26.021Z,12.30
2023-04-27T01:43:12.396Z,12.60
2023-04-27T01:46:08.997Z,12.90
2023-04-27T01:48:55.300Z,13.10
2023-04-27T01:51:41.162Z,13.10
2023-04-27T01:54:28.694Z,13.20
2023-04-27T01:57:16.378Z,13.10
2023-04-27T02:00:02.719Z,13.00
2023-04-27T02:03:06.647Z,13.00
2023-04-27T02:05:53.398Z,12.90
2023-04-27T02:08:39.676Z,12.90
2023-04-27T02:11:27.940Z,12.90
2023-04-27T02:14:14.580Z,12.80
2023-04-27T02:17:01.125Z,12.70
2023-04-27T02:19:47.294Z,12.70
2023-04-27T02:22:33.220Z,12.50
2023-04-27T02:25:19.397Z,12.60
2023-04-27T02:28:05.786Z,12.60
2023-04-27T02:30:51.945Z,12.60
2023-04-27T02:33:37.889Z,12.70
2023-04-27T02:36:23.454Z,12.80
2023-04-27T02:39:09.251Z,12.70
2023-04-27T02:41:57.519Z,12.80
2023-04-27T02:44:43.608Z,12.80
2023-04-27T02:47:29.328Z,12.50
2023-04-27T02:50:14.873Z,12.50
2023-04-27T02:53:00.417Z,12.40
2023-04-27T02:55:48.285Z,12.40
2023-04-27T02:58:34.099Z,12.50
2023-04-27T03:01:19.700Z,12.60
2023-04-27T03:04:06.161Z,12.60
2023-04-27T03:06:52.021Z,12.50
2023-04-27T03:09:38.410Z,12.50
2023-04-27T03:12:23.978Z,12.40
2023-04-27T03:15:10.033Z,12.30
2023-04-27T03:17:55.956Z,12.30
2023-04-27T03:20:41.657Z,12.30
2023-04-27T03:23:27.794Z,12.20
2023-04-27T03:26:15.051Z,12.10
2023-04-27T03:29:01.044Z,12.10
2023-04-27T03:31:47.818Z,11.90
2023-04-27T03:34:34.064Z,11.30
2023-04-27T03:37:20.231Z,11.10
2023-04-27T03:40:07.885Z,10.90
2023-04-27T03:42:54.224Z,11.30
2023-04-27T03:45:40.313Z,11.40
2023-04-27T03:48:27.004Z,11.20
2023-04-27T03:51:15.230Z,11.30
2023-04-27T03:54:04.184Z,11.40
2023-04-27T03:56:50.229Z,11.40
2023-04-27T03:59:37.407Z,11.50
2023-04-27T04:02:24.054Z,11.30
2023-04-27T04:05:10.413Z,11.00
2023-04-27T04:07:57.117Z,10.60
2023-04-27T04:10:44.451Z,9.80
2023-04-27T04:13:30.599Z,9.80
2023-04-27T04:16:17.314Z,9.70
2023-04-27T04:19:03.443Z,9.70
2023-04-27T04:21:49.870Z,9.80
2023-04-27T04:24:37.953Z,10.00
2023-04-27T04:27:23.841Z,10.50
2023-04-27T04:30:10.887Z,10.70
2023-04-27T04:32:57.994Z,10.60
2023-04-27T04:35:43.618Z,10.30
2023-04-27T04:38:30.561Z,10.10
2023-04-27T04:41:16.641Z,11.50
2023-04-27T04:44:03.283Z,10.20
2023-04-27T04:46:49.711Z,10.70
2023-04-27T04:49:37.000Z,10.70
2023-04-27T04:52:24.201Z,11.00
2023-04-27T04:55:11.292Z,10.90
2023-04-27T04:57:57.142Z,11.00
2023-04-27T05:00:43.420Z,10.80
2023-04-27T05:03:28.883Z,10.60
2023-04-27T05:06:15.125Z,10.60
2023-04-27T05:09:04.370Z,10.60
2023-04-27T05:11:49.998Z,10.40
2023-04-27T05:14:36.875Z,10.40
2023-04-27T05:17:22.523Z,10.60
2023-04-27T05:20:09.509Z,10.70
2023-04-27T05:22:55.731Z,10.30
2023-04-27T05:25:42.060Z,10.50
2023-04-27T05:28:27.563Z,10.80
2023-04-27T05:31:13.263Z,11.00
2023-04-27T05:33:59.158Z,11.10
2023-04-27T05:36:44.974Z,10.90
2023-04-27T05:39:31.099Z,10.90
2023-04-27T05:42:19.343Z,11.10
2023-04-27T05:45:05.993Z,11.10
2023-04-27T05:47:51.882Z,11.60
2023-04-27T05:50:37.696Z,12.10
2023-04-27T05:53:23.581Z,11.80
2023-04-27T05:56:11.809Z,11.80
2023-04-27T05:58:58.104Z,12.00
2023-04-27T06:01:44.784Z,12.20
2023-04-27T06:04:32.962Z,12.10
2023-04-27T06:07:18.716Z,12.00
2023-04-27T06:10:04.759Z,12.30
2023-04-27T06:12:50.834Z,12.70
2023-04-27T06:15:36.363Z,12.70
2023-04-27T06:18:23.039Z,12.80
2023-04-27T06:21:08.962Z,13.00
2023-04-27T06:23:54.862Z,13.20
2023-04-27T06:26:40.757Z,13.10
2023-04-27T06:29:26.426Z,13.30
2023-04-27T06:32:12.639Z,13.40
2023-04-27T06:34:58.475Z,14.00
2023-04-27T06:37:44.933Z,13.90
2023-04-27T06:40:30.659Z,13.80
2023-04-27T06:43:16.953Z,13.70
2023-04-27T06:46:03.143Z,13.80
2023-04-27T06:48:48.983Z,13.90
2023-04-27T06:51:34.410Z,14.10
2023-04-27T06:54:20.737Z,14.30
2023-04-27T06:57:06.824Z,13.70
2023-04-27T06:59:52.685Z,15.00
2023-04-27T07:02:38.733Z,14.90
2023-04-27T07:05:24.563Z,14.90
2023-04-27T07:08:10.196Z,14.50
2023-04-27T07:10:56.320Z,14.70
2023-04-27T07:13:42.637Z,15.00
2023-04-27T07:16:28.572Z,14.90
2023-04-27T07:19:14.728Z,14.90
2023-04-27T07:22:01.654Z,14.80
2023-04-27T07:24:47.648Z,15.00
2023-04-27T07:27:33.270Z,14.90
2023-04-27T07:30:19.140Z,15.00
2023-04-27T07:33:05.777Z,14.90
2023-04-27T07:35:53.998Z,14.90
2023-04-27T07:38:39.687Z,14.70
2023-04-27T07:41:25.254Z,15.00
2023-04-27T07:44:12.455Z,15.50
2023-04-27T07:46:58.584Z,15.00
2023-04-27T07:49:46.959Z,15.20
2023-04-27T07:52:32.457Z,15.40
2023-04-27T07:55:18.327Z,15.60
2023-04-27T07:58:05.020Z,15.50
2023-04-27T08:00:50.736Z,15.80
2023-04-27T08:03:36.859Z,16.30
2023-04-27T08:06:23.309Z,16.90
2023-04-27T08:09:09.646Z,16.20
2023-04-27T08:11:55.697Z,16.20
2023-04-27T08:14:41.277Z,16.80
2023-04-27T08:17:26.934Z,16.70
2023-04-27T08:20:13.122Z,16.70
2023-04-27T08:22:58.565Z,16.80
2023-04-27T08:25:44.213Z,16.50
2023-04-27T08:28:29.995Z,16.90
2023-04-27T08:31:16.709Z,17.20
2023-04-27T08:34:03.242Z,17.40
2023-04-27T08:36:49.363Z,18.00
2023-04-27T08:39:35.567Z,19.40
2023-04-27T08:42:22.013Z,20.10
2023-04-27T08:45:09.302Z,20.70
2023-04-27T08:47:55.134Z,21.50
2023-04-27T08:50:45.097Z,19.40
2023-04-27T08:53:32.101Z,18.80
2023-04-27T08:56:25.451Z,18.10
2023-04-27T08:59:16.722Z,18.00
2023-04-27T09:02:04.786Z,19.00
2023-04-27T09:04:51.723Z,19.40
2023-04-27T09:07:37.952Z,21.40
2023-04-27T09:10:24.602Z,21.00
2023-04-27T09:13:10.793Z,20.60
2023-04-27T09:15:56.780Z,19.70
2023-04-27T09:18:43.905Z,20.40
2023-04-27T09:21:31.377Z,21.80
2023-04-27T09:24:17.746Z,22.20
2023-04-27T09:27:04.950Z,23.60
2023-04-27T09:29:51.822Z,22.40
2023-04-27T09:32:37.767Z,21.30
2023-04-27T09:35:29.649Z,20.90
2023-04-27T09:38:17.194Z,21.50
2023-04-27T09:41:03.366Z,22.90
2023-04-27T09:43:49.685Z,24.70
2023-04-27T09:46:36.315Z,22.50
2023-04-27T09:49:23.847Z,22.00
2023-04-27T09:52:10.918Z,23.60
2023-04-27T09:54:59.103Z,22.60
2023-04-27T09:57:54.094Z,21.50
2023-04-27T10:00:40.541Z,21.30
2023-04-27T10:04:04.345Z,21.70
2023-04-27T10:07:07.836Z,22.20
2023-04-27T10:09:53.903Z,21.90
2023-04-27T10:12:40.388Z,21.00
2023-04-27T10:15:28.445Z,22.80
2023-04-27T10:18:27.459Z,23.90
2023-04-27T10:21:14.397Z,23.80
2023-04-27T10:24:10.415Z,23.10
2023-04-27T10:27:02.959Z,21.50
2023-04-27T10:29:50.723Z,23.60
2023-04-27T10:32:36.697Z,23.40
2023-04-27T10:35:33.561Z,22.30
2023-04-27T10:38:23.628Z,21.90
2023-04-27T10:41:14.879Z,22.40
2023-04-27T10:44:26.679Z,21.90
2023-04-27T10:47:22.225Z,23.90
2023-04-27T10:50:13.670Z,24.50
2023-04-27T10:53:08.123Z,23.30
2023-04-27T10:55:58.102Z,23.10
2023-04-27T10:58:49.071Z,24.20
2023-04-27T11:01:37.026Z,24.50
2023-04-27T11:04:23.089Z,24.20
2023-04-27T11:07:11.655Z,24.20
2023-04-27T11:09:57.494Z,22.70
2023-04-27T11:12:43.198Z,23.00
2023-04-27T11:15:29.310Z,24.50
2023-04-27T11:18:16.743Z,26.00
2023-04-27T11:21:21.579Z,23.50
2023-04-27T11:24:08.930Z,24.20
2023-04-27T11:26:55.263Z,24.90
2023-04-27T11:29:41.757Z,24.60
2023-04-27T11:32:27.772Z,24.30
2023-04-27T11:35:14.125Z,24.70
2023-04-27T11:38:00.070Z,26.00
2023-04-27T11:41:06.738Z,24.00
2023-04-27T11:43:52.710Z,24.40
2023-04-27T11:46:39.464Z,25.90
2023-04-27T11:49:26.616Z,27.40
2023-04-27T11:52:13.758Z,28.10
2023-04-27T11:55:00.688Z,26.60
2023-04-27T11:57:48.260Z,26.50
2023-04-27T12:00:34.545Z,26.00
2023-04-27T12:03:20.867Z,26.50
2023-04-27T12:06:27.657Z,28.20
2023-04-27T12:09:13.739Z,28.90
2023-04-27T12:12:00.282Z,30.50
2023-04-27T12:14:46.726Z,29.20
2023-04-27T12:17:33.287Z,28.10
2023-04-27T12:20:19.447Z,25.90
2023-04-27T12:23:05.199Z,23.60
2023-04-27T12:25:51.423Z,23.50
2023-04-27T12:28:37.944Z,24.30
2023-04-27T12:31:26.902Z,23.60
2023-04-27T12:34:14.389Z,24.00
2023-04-27T12:37:01.214Z,25.90
2023-04-27T12:39:47.544Z,26.20
2023-04-27T12:42:35.319Z,28.00
2023-04-27T12:45:21.489Z,26.50
2023-04-27T12:48:07.577Z,25.90
2023-04-27T12:50:53.444Z,26.20
2023-04-27T12:53:39.620Z,25.70
2023-04-27T12:56:25.707Z,25.60
2023-04-27T12:59:11.730Z,25.30
2023-04-27T13:01:58.305Z,25.70
2023-04-27T13:04:44.481Z,26.20
2023-04-27T13:07:31.103Z,25.30
2023-04-27T13:10:17.153Z,24.10
2023-04-27T13:13:03.641Z,23.10
2023-04-27T13:15:49.791Z,22.50
2023-04-27T13:18:37.268Z,22.30
2023-04-27T13:21:23.537Z,22.90
2023-04-27T13:24:09.770Z,23.60
2023-04-27T13:26:56.285Z,23.80
2023-04-27T13:29:42.620Z,22.50
2023-04-27T13:32:28.634Z,22.00
2023-04-27T13:35:14.951Z,22.00
2023-04-27T13:38:01.339Z,21.70
2023-04-27T13:40:48.180Z,21.90
2023-04-27T13:43:34.519Z,22.10
2023-04-27T13:46:20.401Z,22.00
2023-04-27T13:49:06.635Z,22.20
2023-04-27T13:51:52.757Z,21.90
2023-04-27T13:54:38.852Z,21.90
2023-04-27T13:57:24.894Z,21.80
2023-04-27T14:00:13.236Z,21.80
2023-04-27T14:03:05.032Z,21.80
2023-04-27T14:05:51.720Z,21.90
2023-04-27T14:08:38.006Z,22.40
2023-04-27T14:11:23.679Z,22.40
2023-04-27T14:14:09.175Z,22.10
2023-04-27T14:16:55.181Z,21.90
2023-04-27T14:19:41.492Z,21.80
2023-04-27T14:22:27.862Z,22.00
2023-04-27T14:25:14.082Z,22.30
2023-04-27T14:28:05.094Z,22.70
2023-04-27T14:30:51.809Z,22.70
2023-04-27T14:33:38.577Z,22.30
2023-04-27T14:36:24.804Z,22.20
2023-04-27T14:39:10.871Z,22.40
2023-04-27T14:41:57.314Z,22.60
2023-04-27T14:44:43.421Z,22.80
2023-04-27T14:47:30.056Z,22.40
2023-04-27T14:50:16.411Z,22.70
2023-04-27T14:53:02.659Z,23.10
2023-04-27T14:55:49.053Z,22.90
2023-04-27T14:58:35.891Z,23.00
2023-04-27T15:01:22.764Z,22.70
2023-04-27T15:04:12.477Z,22.70
2023-04-27T15:06:59.078Z,22.70
2023-04-27T15:09:44.994Z,22.40
2023-04-27T15:12:30.816Z,22.40
2023-04-27T15:15:17.970Z,22.30
2023-04-27T15:18:04.899Z,22.30
2023-04-27T15:20:55.027Z,22.40
2023-04-27T15:23:41.525Z,22.00
2023-04-27T15:26:27.453Z,22.20
2023-04-27T15:29:14.440Z,22.00
2023-04-27T15:32:01.406Z,21.90
2023-04-27T15:34:48.431Z,22.20
2023-04-27T15:37:36.896Z,22.40
2023-04-27T15:40:23.303Z,21.80
2023-04-27T15:43:09.605Z,21.90
2023-04-27T15:45:56.241Z,21.50
2023-04-27T15:48:43.211Z,21.90
2023-04-27T15:51:29.341Z,21.80
2023-04-27T15:54:16.906Z,21.70
2023-04-27T15:57:04.180Z,21.70
2023-04-27T15:59:50.354Z,21.60
2023-04-27T16:02:39.695Z,21.50
2023-04-27T16:05:26.572Z,21.60
2023-04-27T16:08:12.710Z,21.60
2023-04-27T16:10:59.137Z,21.60
2023-04-27T16:13:45.290Z,21.50
2023-04-27T16:16:32.574Z,21.50
2023-04-27T16:19:19.491Z,21.30
2023-04-27T16:22:05.068Z,21.40
2023-04-27T16:24:50.958Z,21.30
2023-04-27T16:27:40.030Z,21.20
2023-04-27T16:30:26.784Z,21.20
2023-04-27T16:33:13.122Z,21.20
2023-04-27T16:35:59.170Z,21.30
2023-04-27T16:38:46.960Z,21.00
2023-04-27T16:41:33.294Z,21.00
2023-04-27T16:44:19.259Z,21.10
2023-04-27T16:47:05.263Z,21.00
2023-04-27T16:49:51.378Z,20.90
2023-04-27T16:52:37.816Z,20.80
2023-04-27T16:55:23.947Z,20.80
2023-04-27T16:58:10.043Z,20.80
2023-04-27T17:00:56.251Z,20.80
2023-04-27T17:03:42.368Z,20.90
2023-04-27T17:06:30.073Z,20.80
2023-04-27T17:09:17.146Z,20.70
2023-04-27T17:12:08.270Z,20.70
2023-04-27T17:14:54.217Z,20.60
2023-04-27T17:17:40.618Z,20.40
2023-04-27T17:20:26.779Z,20.30
2023-04-27T17:23:13.357Z,20.20
2023-04-27T17:25:59.487Z,20.10
2023-04-27T17:28:49.436Z,20.10
2023-04-27T17:31:36.817Z,20.10
2023-04-27T17:34:23.169Z,20.00
2023-04-27T17:37:09.593Z,20.00
2023-04-27T17:39:55.580Z,19.90
2023-04-27T17:42:41.678Z,19.90
2023-04-27T17:45:29.129Z,19.80
2023-04-27T17:48:15.350Z,19.80
2023-04-27T17:51:01.360Z,19.80
2023-04-27T17:53:47.810Z,19.80
2023-04-27T17:56:34.275Z,19.70
2023-04-27T17:59:20.442Z,19.80
2023-04-27T18:02:06.483Z,19.80
2023-04-27T18:04:52.970Z,19.70
2023-04-27T18:07:39.034Z,19.70
2023-04-27T18:10:25.107Z,19.80
2023-04-27T18:13:11.468Z,19.60
2023-04-27T18:15:58.882Z,19.60
2023-04-27T18:18:46.453Z,19.50
2023-04-27T18:21:32.899Z,19.80
2023-04-27T18:24:18.784Z,20.00
2023-04-27T18:27:05.068Z,20.00
2023-04-27T18:29:52.451Z,20.10
2023-04-27T18:32:38.678Z,20.10
2023-04-27T18:35:25.163Z,20.00
2023-04-27T18:38:12.100Z,19.70
2023-04-27T18:40:58.902Z,20.10
2023-04-27T18:43:48.298Z,19.70
2023-04-27T18:46:34.428Z,19.80
2023-04-27T18:49:20.558Z,19.60
2023-04-27T18:52:11.603Z,19.60
2023-04-27T18:54:57.406Z,19.60
2023-04-27T18:57:43.629Z,19.40
2023-04-27T19:00:30.917Z,19.30
2023-04-27T19:03:17.343Z,19.40
2023-04-27T19:09:58.909Z,18.40
2023-04-27T19:15:59.338Z,19.00
2023-04-27T19:19:00.167Z,19.20
2023-04-27T19:21:58.898Z,19.10
2023-04-27T19:25:05.633Z,18.30
2023-04-27T19:27:52.669Z,19.00
2023-04-27T19:30:38.273Z,18.70
2023-04-27T19:33:24.306Z,18.60
2023-04-27T19:36:10.407Z,18.80
2023-04-27T19:38:56.694Z,18.60
2023-04-27T19:41:42.944Z,18.60
2023-04-27T19:44:29.465Z,18.60
2023-04-27T19:47:15.473Z,18.50
2023-04-27T19:50:01.736Z,18.60
2023-04-27T19:52:47.674Z,18.70
2023-04-27T19:55:33.823Z,18.80
2023-04-27T19:58:20.046Z,18.60
2023-04-27T20:01:06.732Z,18.30
2023-04-27T20:03:54.561Z,18.20
2023-04-27T20:06:43.382Z,18.20
2023-04-27T20:09:29.977Z,18.10
2023-04-27T20:12:40.397Z,18.10
2023-04-27T20:15:23.064Z,18.10
2023-04-27T20:18:09.666Z,18.20
2023-04-27T20:20:55.393Z,17.90
2023-04-27T20:23:41.942Z,17.90
2023-04-27T20:26:28.140Z,17.80
2023-04-27T20:29:14.360Z,17.90
2023-04-27T20:32:00.967Z,18.30
2023-04-27T20:34:47.088Z,18.40
2023-04-27T20:37:33.695Z,18.40
2023-04-27T20:40:20.532Z,18.30
2023-04-27T20:43:06.741Z,18.30
2023-04-27T20:45:53.312Z,18.20
2023-04-27T20:48:39.827Z,18.20
2023-04-27T20:51:26.602Z,18.20
2023-04-27T20:54:12.823Z,18.20
2023-04-27T20:57:02.397Z,18.10
2023-04-27T20:59:48.555Z,17.60
2023-04-27T21:02:35.551Z,17.80
2023-04-27T21:05:21.625Z,17.80
2023-04-27T21:08:08.350Z,17.50
2023-04-27T21:10:54.522Z,17.60
2023-04-27T21:13:40.803Z,17.60
2023-04-27T21:16:27.766Z,17.50
2023-04-27T21:19:15.469Z,17.40
2023-04-27T21:22:02.565Z,17.30
2023-04-27T21:24:48.992Z,17.00
2023-04-27T21:27:35.062Z,17.00
2023-04-27T21:30:21.774Z,16.70
2023-04-27T21:33:08.158Z,16.60
2023-04-27T21:35:55.946Z,16.20
2023-04-27T21:38:42.037Z,16.10
2023-04-27T21:41:28.911Z,16.00
2023-04-27T21:44:16.215Z,15.80
2023-04-27T21:47:02.564Z,16.00
2023-04-27T21:49:52.470Z,16.00
2023-04-27T21:52:39.617Z,15.70
2023-04-27T21:55:25.742Z,15.70
2023-04-27T21:58:11.934Z,15.70
2023-04-27T22:00:58.914Z,15.90
2023-04-27T22:03:45.441Z,16.10
2023-04-27T22:06:33.700Z,16.00
2023-04-27T22:09:21.018Z,16.00
2023-04-27T22:12:07.107Z,16.10
2023-04-27T22:14:53.736Z,16.10
2023-04-27T22:17:39.839Z,16.40
2023-04-27T22:20:25.929Z,16.50
2023-04-27T22:23:12.183Z,16.30
2023-04-27T22:25:57.928Z,16.30
2023-04-27T22:28:43.459Z,15.90
2023-04-27T22:31:31.764Z,15.40
2023-04-27T22:34:17.971Z,16.40
2023-04-27T22:37:04.282Z,15.40
2023-04-27T22:39:50.692Z,15.50
2023-04-27T22:42:37.121Z,15.60
2023-04-27T22:45:24.004Z,15.10
2023-04-27T22:48:10.239Z,14.80
2023-04-27T22:50:56.114Z,15.10
2023-04-27T22:53:42.557Z,15.40
2023-04-27T22:56:28.619Z,15.20
2023-04-27T22:59:14.774Z,15.00
2023-04-27T23:02:00.592Z,15.30
2023-04-27T23:04:46.681Z,15.20
2023-04-27T23:07:33.736Z,14.90
2023-04-27T23:10:20.106Z,14.80
2023-04-27T23:13:07.622Z,14.70
2023-04-27T23:15:57.582Z,14.90
2023-04-27T23:18:44.035Z,15.00
2023-04-27T23:21:29.945Z,14.80
2023-04-27T23:24:16.859Z,14.40
2023-04-27T23:27:03.980Z,14.20
2023-04-27T23:29:50.902Z,14.20
2023-04-27T23:32:37.209Z,14.10
2023-04-27T23:35:23.687Z,13.90
2023-04-27T23:38:09.966Z,14.20
2023-04-27T23:40:56.128Z,14.20
2023-04-27T23:43:41.953Z,14.20
2023-04-27T23:46:28.193Z,14.60
2023-04-27T23:49:14.096Z,14.50
2023-04-27T23:52:00.277Z,14.60
2023-04-27T23:54:46.240Z,14.60
2023-04-27T23:57:32.259Z,14.50
